Time;durP1;ratioP1;P1;durP2;ratioP2;P2;SDS_P1;SDS_P2;PMS_P1;PMS_P2;Temp;Humidity;BMP_temperature;BMP_pressure;BME280_temperature;BME280_humidity;BME280_pressure;Samples;Min_cycle;Max_cycle;Signal;HPM_P1;HPM_P2
2021/06/18 00:00:11;;;;;;;10.13;4.50;;;;;;;;;;5157323;28;20469;-49
2021/06/18 00:02:41;;;;;;;10.93;4.17;;;;;;;;;;5150519;28;20446;-56
2021/06/18 00:05:09;;;;;;;9.67;4.57;;;;;;;;;;5143709;27;20449;-55
2021/06/18 00:07:54;;;;;;;7.53;4.70;;;;;;;;;;5154100;28;20484;-55
2021/06/18 00:10:23;;;;;;;7.30;3.90;;;;;;;;;;5156793;27;20465;-54
2021/06/18 00:12:54;;;;;;;8.80;4.60;;;;;;;;;;5144714;28;20456;-55
2021/06/18 00:15:22;;;;;;;9.90;4.63;;;;;;;;;;5156065;28;20475;-58
2021/06/18 00:17:51;;;;;;;12.50;4.60;;;;;;;;;;5135299;28;20461;-56
2021/06/18 00:20:30;;;;;;;11.40;4.60;;;;;;;;;;5148635;28;20507;-56
2021/06/18 00:22:57;;;;;;;8.83;4.40;;;;;;;;;;5147953;28;20482;-55
2021/06/18 00:25:25;;;;;;;14.47;5.20;;;;;;;;;;5154701;28;20431;-55
2021/06/18 00:27:56;;;;;;;10.10;5.00;;;;;;;;;;5145813;28;20455;-56
2021/06/18 00:30:24;;;;;;;16.60;5.60;;;;;;;;;;5136138;28;20476;-52
2021/06/18 00:32:53;;;;;;;6.30;3.80;;;;;;;;;;5135865;28;20460;-53
2021/06/18 00:35:22;;;;;;;8.87;5.37;;;;;;;;;;5138838;28;20608;-53
2021/06/18 00:37:49;;;;;;;13.63;6.00;;;;;;;;;;5137928;28;20454;-50
2021/06/18 00:40:17;;;;;;;21.93;6.20;;;;;;;;;;5139622;27;20480;-53
2021/06/18 00:43:19;;;;;;;9.97;5.43;;;;;;;;;;5139804;28;20487;-57
2021/06/18 00:45:46;;;;;;;12.93;5.50;;;;;;;;;;5157515;27;20515;-58
2021/06/18 00:48:15;;;;;;;13.17;5.10;;;;;;;;;;5159845;27;20448;-50
2021/06/18 00:51:18;;;;;;;13.20;5.30;;;;;;;;;;5143510;27;20541;-55
2021/06/18 00:53:46;;;;;;;10.40;5.70;;;;;;;;;;5155081;27;20489;-56
2021/06/18 00:56:13;;;;;;;10.27;6.00;;;;;;;;;;5139407;28;20446;-53
2021/06/18 00:59:17;;;;;;;13.27;5.27;;;;;;;;;;5139261;28;20514;-55
2021/06/18 01:01:45;;;;;;;9.43;6.30;;;;;;;;;;5156182;27;20491;-57
2021/06/18 01:04:13;;;;;;;10.67;6.20;;;;;;;;;;5159212;27;20453;-56
2021/06/18 01:07:03;;;;;;;10.43;5.67;;;;;;;;;;5147347;27;20520;-54
2021/06/18 01:09:33;;;;;;;21.80;6.80;;;;;;;;;;5154691;27;20491;-57
2021/06/18 01:12:04;;;;;;;11.20;6.10;;;;;;;;;;5158500;27;20484;-56
2021/06/18 01:14:37;;;;;;;9.87;5.93;;;;;;;;;;5158629;27;20458;-58
2021/06/18 01:17:07;;;;;;;13.57;6.80;;;;;;;;;;5158871;27;20453;-53
2021/06/18 01:19:42;;;;;;;12.90;6.97;;;;;;;;;;5158651;27;20469;-59
2021/06/18 01:22:11;;;;;;;9.83;6.60;;;;;;;;;;5157946;27;20459;-54
2021/06/18 01:25:00;;;;;;;12.40;6.33;;;;;;;;;;5158157;27;20469;-54
2021/06/18 01:27:48;;;;;;;9.47;5.93;;;;;;;;;;5157868;27;20498;-55
2021/06/18 01:30:20;;;;;;;8.90;6.40;;;;;;;;;;5132901;28;20438;-51
2021/06/18 01:32:54;;;;;;;9.30;6.43;;;;;;;;;;5137716;28;20533;-51
2021/06/18 01:35:22;;;;;;;13.30;6.70;;;;;;;;;;5137555;28;20454;-55
2021/06/18 01:38:09;;;;;;;10.37;7.30;;;;;;;;;;5137792;27;20466;-53
2021/06/18 01:40:36;;;;;;;14.50;6.73;;;;;;;;;;5137977;27;20454;-55
2021/06/18 01:43:06;;;;;;;14.77;7.30;;;;;;;;;;5158636;27;20510;-58
2021/06/18 01:46:11;;;;;;;9.93;6.80;;;;;;;;;;5146160;27;20478;-58
2021/06/18 01:48:41;;;;;;;11.23;7.53;;;;;;;;;;5137144;28;20462;-55
2021/06/18 01:51:08;;;;;;;9.27;7.00;;;;;;;;;;5138527;28;20458;-61
2021/06/18 01:53:43;;;;;;;10.80;5.77;;;;;;;;;;5150717;27;20460;-55
2021/06/18 01:56:12;;;;;;;12.80;6.87;;;;;;;;;;5151720;27;20511;-56
2021/06/18 01:58:40;;;;;;;10.60;6.70;;;;;;;;;;5158445;27;20473;-56
2021/06/18 02:01:08;;;;;;;9.27;7.00;;;;;;;;;;5139736;27;20461;-59
2021/06/18 02:03:38;;;;;;;15.03;8.20;;;;;;;;;;5137100;28;20443;-56
2021/06/18 02:06:19;;;;;;;18.40;7.53;;;;;;;;;;5136773;27;20450;-52
2021/06/18 02:08:47;;;;;;;12.57;7.30;;;;;;;;;;5138905;27;20537;-58
2021/06/18 02:11:15;;;;;;;22.30;8.17;;;;;;;;;;5145745;27;20457;-55
2021/06/18 02:13:54;;;;;;;10.60;6.83;;;;;;;;;;5156390;27;20457;-56
2021/06/18 02:16:25;;;;;;;20.77;8.40;;;;;;;;;;5153507;27;20485;-56
2021/06/18 02:18:54;;;;;;;10.73;6.83;;;;;;;;;;5156517;27;20513;-55
2021/06/18 02:21:40;;;;;;;17.93;8.47;;;;;;;;;;5144043;27;20502;-59
2021/06/18 02:24:10;;;;;;;14.20;6.67;;;;;;;;;;5149293;27;20494;-52
2021/06/18 02:26:38;;;;;;;12.80;7.70;;;;;;;;;;5158141;27;20466;-59
2021/06/18 02:29:21;;;;;;;11.40;7.10;;;;;;;;;;5157144;27;20457;-57
2021/06/18 02:31:49;;;;;;;9.53;6.83;;;;;;;;;;5135955;28;20451;-58
2021/06/18 02:34:16;;;;;;;29.97;8.93;;;;;;;;;;5152155;27;20465;-55
2021/06/18 02:36:44;;;;;;;9.00;6.60;;;;;;;;;;5156219;27;20516;-55
2021/06/18 02:39:14;;;;;;;9.73;7.27;;;;;;;;;;5150913;27;20541;-58
2021/06/18 02:41:42;;;;;;;9.40;7.13;;;;;;;;;;5149573;27;20454;-57
2021/06/18 02:44:14;;;;;;;10.00;7.50;;;;;;;;;;5143035;27;20466;-58
2021/06/18 02:46:42;;;;;;;10.67;7.47;;;;;;;;;;5140211;27;20462;-58
2021/06/18 02:49:16;;;;;;;15.97;8.30;;;;;;;;;;5136278;28;20514;-57
2021/06/18 02:54:53;;;;;;;13.60;7.50;;;;;;;;;;5136489;27;20421;-54
2021/06/18 02:57:22;;;;;;;11.50;6.87;;;;;;;;;;5135378;28;20469;-57
2021/06/18 03:00:03;;;;;;;10.60;8.10;;;;;;;;;;5134384;28;20545;-58
2021/06/18 03:02:35;;;;;;;11.73;7.17;;;;;;;;;;5142942;27;20446;-56
2021/06/18 03:05:03;;;;;;;12.90;8.00;;;;;;;;;;5138083;27;20462;-52
2021/06/18 03:07:39;;;;;;;14.67;9.03;;;;;;;;;;5147497;27;20545;-53
2021/06/18 03:10:15;;;;;;;11.60;8.03;;;;;;;;;;5139928;27;20496;-55
2021/06/18 03:12:46;;;;;;;16.67;8.63;;;;;;;;;;5144881;27;20454;-57
2021/06/18 03:15:42;;;;;;;13.43;9.27;;;;;;;;;;5135891;28;20453;-58
2021/06/18 03:18:09;;;;;;;16.93;10.20;;;;;;;;;;5135356;28;20458;-58
2021/06/18 03:20:41;;;;;;;11.00;9.70;;;;;;;;;;5149867;27;20525;-57
2021/06/18 03:23:13;;;;;;;14.57;11.00;;;;;;;;;;5161323;27;20533;-55
2021/06/18 03:25:42;;;;;;;15.03;10.50;;;;;;;;;;5176101;27;20433;-54
2021/06/18 03:28:25;;;;;;;15.07;9.93;;;;;;;;;;5177031;27;20425;-59
2021/06/18 03:30:52;;;;;;;19.93;11.83;;;;;;;;;;5175188;27;20563;-51
2021/06/18 03:33:39;;;;;;;13.17;10.87;;;;;;;;;;5156138;27;20475;-55
2021/06/18 03:36:20;;;;;;;18.13;11.03;;;;;;;;;;5162662;27;20627;-52
2021/06/18 03:38:51;;;;;;;15.60;10.00;;;;;;;;;;5154751;27;20455;-59
2021/06/18 03:41:20;;;;;;;11.63;10.40;;;;;;;;;;5176096;27;20436;-53
2021/06/18 03:43:48;;;;;;;17.83;12.00;;;;;;;;;;5166586;27;20457;-56
2021/06/18 03:46:16;;;;;;;13.67;12.00;;;;;;;;;;5176217;27;20448;-56
2021/06/18 03:48:57;;;;;;;13.37;10.77;;;;;;;;;;5175560;27;20459;-58
2021/06/18 03:51:25;;;;;;;17.07;12.47;;;;;;;;;;5176137;27;20486;-57
2021/06/18 03:53:52;;;;;;;12.80;10.20;;;;;;;;;;5159800;27;20453;-57
2021/06/18 03:56:21;;;;;;;13.50;11.13;;;;;;;;;;5172865;27;20491;-57
2021/06/18 03:58:49;;;;;;;21.10;14.63;;;;;;;;;;5155794;28;20478;-56
2021/06/18 04:04:21;;;;;;;13.27;9.87;;;;;;;;;;5161368;27;20488;-55
2021/06/18 04:06:50;;;;;;;13.27;10.20;;;;;;;;;;5158677;27;20491;-55
2021/06/18 04:09:22;;;;;;;17.03;11.07;;;;;;;;;;5156719;28;20513;-54
2021/06/18 04:11:57;;;;;;;18.10;11.03;;;;;;;;;;5169638;27;20480;-56
2021/06/18 04:14:37;;;;;;;14.30;11.13;;;;;;;;;;5180324;27;20747;-55
2021/06/18 04:17:15;;;;;;;19.90;12.90;;;;;;;;;;5159480;27;20477;-52
2021/06/18 04:19:43;;;;;;;16.67;11.20;;;;;;;;;;5159866;27;20525;-55
2021/06/18 04:22:13;;;;;;;14.53;11.47;;;;;;;;;;5160583;27;20434;-56
2021/06/18 04:24:50;;;;;;;15.33;11.20;;;;;;;;;;5180485;27;20471;-52
2021/06/18 04:27:19;;;;;;;15.97;12.23;;;;;;;;;;5181495;27;20452;-56
2021/06/18 04:29:47;;;;;;;22.30;11.53;;;;;;;;;;5165717;27;20470;-52
2021/06/18 04:32:14;;;;;;;19.30;13.00;;;;;;;;;;5159476;27;20487;-60
2021/06/18 04:34:44;;;;;;;16.00;11.90;;;;;;;;;;5160495;27;20461;-59
2021/06/18 04:37:25;;;;;;;13.80;12.40;;;;;;;;;;5160736;27;20458;-55
2021/06/18 04:39:53;;;;;;;13.33;11.90;;;;;;;;;;5160710;27;20473;-59
2021/06/18 04:42:22;;;;;;;15.00;13.27;;;;;;;;;;5173618;27;20433;-57
2021/06/18 04:45:01;;;;;;;12.97;11.67;;;;;;;;;;5160616;27;20462;-49
2021/06/18 04:47:29;;;;;;;14.90;12.33;;;;;;;;;;5166151;27;20467;-53
2021/06/18 04:49:56;;;;;;;11.70;10.07;;;;;;;;;;5171031;27;20477;-52
2021/06/18 04:52:41;;;;;;;14.33;11.70;;;;;;;;;;5162550;27;20434;-53
2021/06/18 04:55:11;;;;;;;14.80;11.70;;;;;;;;;;5160665;27;20446;-57
2021/06/18 04:57:40;;;;;;;16.53;11.10;;;;;;;;;;5168832;27;20526;-58
2021/06/18 05:00:09;;;;;;;13.30;10.13;;;;;;;;;;5160065;27;20474;-59
2021/06/18 05:02:40;;;;;;;13.47;11.27;;;;;;;;;;5165101;27;20466;-56
2021/06/18 05:05:27;;;;;;;18.00;11.93;;;;;;;;;;5168266;27;20499;-54
2021/06/18 05:08:20;;;;;;;17.90;10.83;;;;;;;;;;5157829;27;20526;-59
2021/06/18 05:10:47;;;;;;;16.97;11.70;;;;;;;;;;5154753;27;20499;-56
2021/06/18 05:13:20;;;;;;;15.33;11.63;;;;;;;;;;5150757;27;20455;-54
2021/06/18 05:15:47;;;;;;;15.50;10.87;;;;;;;;;;5159961;27;20460;-52
2021/06/18 05:21:50;;;;;;;21.97;11.27;;;;;;;;;;5140651;27;20496;-59
2021/06/18 05:24:20;;;;;;;21.40;11.90;;;;;;;;;;5137558;28;20474;-58
2021/06/18 05:26:48;;;;;;;14.27;10.33;;;;;;;;;;5127957;28;20475;-56
2021/06/18 05:29:18;;;;;;;17.80;10.33;;;;;;;;;;5134037;28;20563;-58
2021/06/18 05:34:41;;;;;;;15.77;10.57;;;;;;;;;;5120210;28;20435;-57
2021/06/18 05:37:25;;;;;;;13.37;9.67;;;;;;;;;;5117649;28;20461;-52
2021/06/18 05:40:00;;;;;;;20.03;11.17;;;;;;;;;;5125509;28;20485;-56
2021/06/18 05:45:28;;;;;;;16.00;10.73;;;;;;;;;;5120088;28;20446;-52
2021/06/18 05:48:01;;;;;;;17.57;11.13;;;;;;;;;;5119840;28;20457;-52
2021/06/18 05:50:28;;;;;;;17.67;10.33;;;;;;;;;;5115740;28;20463;-61
2021/06/18 05:52:56;;;;;;;21.13;10.60;;;;;;;;;;5119176;28;20482;-61
2021/06/18 05:58:13;;;;;;;18.00;11.63;;;;;;;;;;5121159;28;20442;-54
2021/06/18 06:00:48;;;;;;;13.60;10.00;;;;;;;;;;5137191;28;20513;-54
2021/06/18 06:03:15;;;;;;;16.20;9.03;;;;;;;;;;5127279;28;20466;-57
2021/06/18 06:05:43;;;;;;;17.17;11.40;;;;;;;;;;5116871;28;20450;-56
2021/06/18 06:08:42;;;;;;;15.60;9.50;;;;;;;;;;5122304;28;20458;-58
2021/06/18 06:11:14;;;;;;;16.70;10.20;;;;;;;;;;5131488;28;20465;-54
2021/06/18 06:13:45;;;;;;;17.23;11.50;;;;;;;;;;5105574;28;20505;-55
2021/06/18 06:16:14;;;;;;;24.67;10.13;;;;;;;;;;5115942;28;20504;-51
2021/06/18 06:18:44;;;;;;;15.70;9.40;;;;;;;;;;5133287;28;20481;-56
2021/06/18 06:21:12;;;;;;;15.83;9.70;;;;;;;;;;5125504;28;20566;-57
2021/06/18 06:23:50;;;;;;;15.37;9.73;;;;;;;;;;5116301;28;20478;-60
2021/06/18 06:26:20;;;;;;;13.73;9.63;;;;;;;;;;5132419;28;20469;-56
2021/06/18 06:28:47;;;;;;;17.50;9.07;;;;;;;;;;5126204;28;20436;-57
2021/06/18 06:31:33;;;;;;;12.47;8.93;;;;;;;;;;5116404;28;20443;-60
2021/06/18 06:34:00;;;;;;;14.37;9.87;;;;;;;;;;5120439;28;20528;-56
2021/06/18 06:36:28;;;;;;;13.27;9.07;;;;;;;;;;5119038;28;20462;-59
2021/06/18 06:41:53;;;;;;;10.70;8.57;;;;;;;;;;5111302;28;20483;-58
2021/06/18 06:47:26;;;;;;;13.13;9.63;;;;;;;;;;5114080;28;20417;-57
2021/06/18 06:49:54;;;;;;;21.87;8.07;;;;;;;;;;5119535;28;20750;-55
2021/06/18 06:52:58;;;;;;;16.03;7.83;;;;;;;;;;5115195;28;20451;-54
2021/06/18 06:55:25;;;;;;;18.73;8.00;;;;;;;;;;5115490;28;20479;-57
2021/06/18 07:00:40;;;;;;;21.90;9.00;;;;;;;;;;5151259;27;20489;-52
2021/06/18 07:03:09;;;;;;;10.50;7.23;;;;;;;;;;5154997;27;20442;-53
2021/06/18 07:05:37;;;;;;;14.40;6.83;;;;;;;;;;5146680;27;20461;-54
2021/06/18 07:08:14;;;;;;;12.97;7.00;;;;;;;;;;5142887;27;20445;-54
2021/06/18 07:13:47;;;;;;;8.90;6.27;;;;;;;;;;5143456;27;20498;-54
2021/06/18 07:16:15;;;;;;;16.67;7.67;;;;;;;;;;5154534;27;20503;-56
2021/06/18 07:19:09;;;;;;;12.20;7.10;;;;;;;;;;5154588;27;20647;-57
2021/06/18 07:21:42;;;;;;;13.57;6.73;;;;;;;;;;5143992;27;20494;-53
2021/06/18 07:24:11;;;;;;;10.17;6.83;;;;;;;;;;5133927;27;20459;-57
2021/06/18 07:29:43;;;;;;;10.07;6.33;;;;;;;;;;5149267;28;20447;-57
2021/06/18 07:32:11;;;;;;;10.17;6.40;;;;;;;;;;5152490;28;20483;-57
2021/06/18 07:34:47;;;;;;;14.70;8.13;;;;;;;;;;5149703;28;20410;-56
2021/06/18 07:37:19;;;;;;;8.97;6.53;;;;;;;;;;5134937;28;20458;-57
2021/06/18 07:39:54;;;;;;;15.83;7.87;;;;;;;;;;5137901;27;20472;-54
2021/06/18 07:42:28;;;;;;;12.33;7.10;;;;;;;;;;5154000;28;20445;-54
2021/06/18 07:44:56;;;;;;;13.70;7.20;;;;;;;;;;5126269;28;20441;-55
2021/06/18 07:47:25;;;;;;;11.87;7.47;;;;;;;;;;5118913;28;20870;-55
2021/06/18 07:49:53;;;;;;;11.67;7.33;;;;;;;;;;5136460;28;20453;-57
2021/06/18 07:52:24;;;;;;;14.00;6.80;;;;;;;;;;5118675;28;20463;-59
2021/06/18 07:54:55;;;;;;;23.37;9.97;;;;;;;;;;5116434;28;20455;-51
2021/06/18 07:57:45;;;;;;;16.43;7.93;;;;;;;;;;5115685;28;20455;-53
2021/06/18 08:00:13;;;;;;;10.07;7.00;;;;;;;;;;5114674;28;20522;-58
2021/06/18 08:02:41;;;;;;;11.60;7.40;;;;;;;;;;5121537;28;20446;-59
2021/06/18 08:05:11;;;;;;;11.70;8.43;;;;;;;;;;5122789;28;20723;-54
2021/06/18 08:07:43;;;;;;;16.47;8.27;;;;;;;;;;5125896;28;20474;-59
2021/06/18 08:10:19;;;;;;;12.23;7.67;;;;;;;;;;5124507;28;20451;-56
2021/06/18 08:12:48;;;;;;;16.43;6.93;;;;;;;;;;5132394;28;20588;-56
2021/06/18 08:15:37;;;;;;;12.00;6.93;;;;;;;;;;5130497;28;20431;-54
2021/06/18 08:18:23;;;;;;;17.97;6.80;;;;;;;;;;5122300;28;20446;-56
2021/06/18 08:20:53;;;;;;;13.40;7.80;;;;;;;;;;5123451;28;21101;-55
2021/06/18 08:23:33;;;;;;;12.20;7.47;;;;;;;;;;5123199;28;20534;-57
2021/06/18 08:26:03;;;;;;;12.93;7.43;;;;;;;;;;5129827;28;20459;-57
2021/06/18 08:28:30;;;;;;;18.90;7.80;;;;;;;;;;5125443;28;20450;-51
2021/06/18 08:31:23;;;;;;;12.80;7.43;;;;;;;;;;5121278;28;20495;-55
2021/06/18 08:33:56;;;;;;;15.27;7.13;;;;;;;;;;5124913;28;20462;-54
2021/06/18 08:36:24;;;;;;;14.53;7.57;;;;;;;;;;5114240;28;20521;-59
2021/06/18 08:39:06;;;;;;;14.23;7.07;;;;;;;;;;5116426;28;20443;-52
2021/06/18 08:41:35;;;;;;;13.03;7.27;;;;;;;;;;5119469;28;20569;-57
2021/06/18 08:44:02;;;;;;;19.97;8.50;;;;;;;;;;5124811;28;20501;-51
2021/06/18 08:46:30;;;;;;;13.90;7.70;;;;;;;;;;5118613;28;20465;-58
2021/06/18 08:49:03;;;;;;;19.20;7.67;;;;;;;;;;5120895;28;20514;-58
2021/06/18 08:51:30;;;;;;;13.43;7.70;;;;;;;;;;5121590;28;20452;-57
2021/06/18 08:54:21;;;;;;;14.23;7.53;;;;;;;;;;5138148;28;20443;-54
2021/06/18 08:57:08;;;;;;;13.47;7.87;;;;;;;;;;5115955;28;20435;-57
2021/06/18 08:59:36;;;;;;;11.33;6.50;;;;;;;;;;5116936;28;20462;-57
2021/06/18 09:02:04;;;;;;;9.90;7.30;;;;;;;;;;5117041;28;20509;-53
2021/06/18 09:04:34;;;;;;;8.63;6.50;;;;;;;;;;5116964;28;20485;-54
2021/06/18 09:07:22;;;;;;;12.30;6.60;;;;;;;;;;5124053;28;20476;-60
2021/06/18 09:09:53;;;;;;;14.30;6.70;;;;;;;;;;5135045;28;20438;-55
2021/06/18 09:12:22;;;;;;;14.70;7.10;;;;;;;;;;5134459;27;20488;-59
2021/06/18 09:14:52;;;;;;;9.77;6.57;;;;;;;;;;5140101;27;20446;-57
2021/06/18 09:17:23;;;;;;;12.80;6.20;;;;;;;;;;5140130;27;20485;-55
2021/06/18 09:19:53;;;;;;;13.10;6.83;;;;;;;;;;5158052;27;20441;-56
2021/06/18 09:22:23;;;;;;;10.13;7.03;;;;;;;;;;5141952;27;20493;-56
2021/06/18 09:25:06;;;;;;;15.47;7.13;;;;;;;;;;5144212;27;20455;-55
2021/06/18 09:27:37;;;;;;;13.10;8.87;;;;;;;;;;5138682;28;20454;-55
2021/06/18 09:30:20;;;;;;;12.63;8.10;;;;;;;;;;5147456;27;20464;-55
2021/06/18 09:32:58;;;;;;;11.57;6.90;;;;;;;;;;5143993;27;20433;-59
2021/06/18 09:35:30;;;;;;;15.90;6.97;;;;;;;;;;5155008;27;20565;-53
2021/06/18 09:38:23;;;;;;;18.30;8.27;;;;;;;;;;5137998;28;20462;-57
2021/06/18 09:41:03;;;;;;;19.67;7.30;;;;;;;;;;5155590;27;20473;-56
2021/06/18 09:43:45;;;;;;;16.80;9.23;;;;;;;;;;5158906;27;20468;-57
2021/06/18 09:46:13;;;;;;;12.83;6.57;;;;;;;;;;5149765;27;20476;-56
2021/06/18 09:48:53;;;;;;;13.83;6.73;;;;;;;;;;5137480;28;20454;-59
2021/06/18 09:51:20;;;;;;;21.10;8.87;;;;;;;;;;5137686;28;20457;-53
2021/06/18 09:53:50;;;;;;;12.23;7.70;;;;;;;;;;5140053;27;20439;-58
2021/06/18 09:56:27;;;;;;;14.03;7.47;;;;;;;;;;5157850;27;20466;-56
2021/06/18 09:58:56;;;;;;;15.13;7.10;;;;;;;;;;5143055;27;20430;-57
2021/06/18 10:01:34;;;;;;;14.80;6.53;;;;;;;;;;5142506;27;20806;-54
2021/06/18 10:04:11;;;;;;;14.47;6.70;;;;;;;;;;5153522;27;20456;-60
2021/06/18 10:06:41;;;;;;;12.27;7.80;;;;;;;;;;5154815;27;20485;-56
2021/06/18 10:09:09;;;;;;;14.57;6.70;;;;;;;;;;5156374;27;20448;-59
2021/06/18 10:11:36;;;;;;;11.40;7.63;;;;;;;;;;5145682;27;20457;-58
2021/06/18 10:14:05;;;;;;;16.43;7.30;;;;;;;;;;5136913;27;20449;-59
2021/06/18 10:16:34;;;;;;;14.10;7.20;;;;;;;;;;5154405;27;20440;-53
2021/06/18 10:19:04;;;;;;;15.03;6.53;;;;;;;;;;5154106;27;20541;-57
2021/06/18 10:21:34;;;;;;;14.80;7.37;;;;;;;;;;5154067;27;20489;-53
2021/06/18 10:24:10;;;;;;;16.13;6.50;;;;;;;;;;5145265;27;20458;-55
2021/06/18 10:26:40;;;;;;;13.00;6.30;;;;;;;;;;5131843;28;20469;-52
2021/06/18 10:29:11;;;;;;;13.07;7.60;;;;;;;;;;5139367;27;20458;-58
2021/06/18 10:31:39;;;;;;;18.50;8.90;;;;;;;;;;5143155;27;20457;-58
2021/06/18 10:34:07;;;;;;;17.83;6.40;;;;;;;;;;5142368;27;20458;-53
2021/06/18 10:36:46;;;;;;;11.73;6.90;;;;;;;;;;5139666;27;20441;-54
2021/06/18 10:39:15;;;;;;;10.50;5.60;;;;;;;;;;5154462;27;20464;-58
2021/06/18 10:41:47;;;;;;;18.77;7.40;;;;;;;;;;5145090;27;20489;-57
2021/06/18 10:44:42;;;;;;;13.83;5.93;;;;;;;;;;5150658;27;20443;-51
2021/06/18 10:47:43;;;;;;;14.67;7.90;;;;;;;;;;5111132;28;20549;-58
2021/06/18 10:53:24;;;;;;;7.70;4.90;;;;;;;;;;5131485;28;20508;-54
2021/06/18 10:56:05;;;;;;;11.57;4.80;;;;;;;;;;5152600;27;20457;-55
2021/06/18 10:58:52;;;;;;;10.63;5.73;;;;;;;;;;5156552;27;20452;-54
2021/06/18 11:01:30;;;;;;;21.93;7.33;;;;;;;;;;5133379;27;20530;-56
2021/06/18 11:04:17;;;;;;;13.23;5.70;;;;;;;;;;5139133;27;20441;-57
2021/06/18 11:06:56;;;;;;;16.60;5.40;;;;;;;;;;5154741;27;20496;-56
2021/06/18 11:09:45;;;;;;;8.60;4.97;;;;;;;;;;5146293;27;20461;-60
2021/06/18 11:12:35;;;;;;;9.47;4.20;;;;;;;;;;5140005;27;20454;-58
2021/06/18 11:15:04;;;;;;;16.30;5.30;;;;;;;;;;5147511;27;20513;-57
2021/06/18 11:17:43;;;;;;;11.50;4.70;;;;;;;;;;5138769;27;20439;-53
2021/06/18 11:20:46;;;;;;;12.47;4.47;;;;;;;;;;5145634;27;20449;-54
2021/06/18 11:23:23;;;;;;;12.40;4.60;;;;;;;;;;5153495;27;20538;-55
2021/06/18 11:26:10;;;;;;;12.67;5.50;;;;;;;;;;5141332;28;20479;-56
2021/06/18 11:28:44;;;;;;;12.33;4.53;;;;;;;;;;5144881;28;20465;-56
2021/06/18 11:34:08;;;;;;;10.43;5.43;;;;;;;;;;5132001;27;20458;-55
2021/06/18 11:36:46;;;;;;;18.60;3.60;;;;;;;;;;5138488;28;20437;-55
2021/06/18 11:39:39;;;;;;;16.10;3.43;;;;;;;;;;5139195;28;20489;-56
2021/06/18 11:42:10;;;;;;;8.30;3.67;;;;;;;;;;5152512;28;20546;-53
2021/06/18 11:44:38;;;;;;;11.60;3.20;;;;;;;;;;5156043;27;20445;-59
2021/06/18 11:47:11;;;;;;;11.00;3.87;;;;;;;;;;5150866;28;20472;-57
2021/06/18 11:49:44;;;;;;;10.00;3.17;;;;;;;;;;5155833;27;20473;-60
2021/06/18 11:52:22;;;;;;;7.33;3.53;;;;;;;;;;5140121;27;20460;-58
2021/06/18 11:55:12;;;;;;;11.17;3.67;;;;;;;;;;5143459;28;20518;-59
2021/06/18 12:00:59;;;;;;;8.30;3.90;;;;;;;;;;5142015;28;20475;-56
2021/06/18 12:03:43;;;;;;;7.50;4.13;;;;;;;;;;5136979;28;20541;-53
2021/06/18 12:06:18;;;;;;;7.43;3.77;;;;;;;;;;5141628;28;20517;-55
2021/06/18 12:09:07;;;;;;;14.50;5.63;;;;;;;;;;5134640;28;20441;-56
2021/06/18 12:11:36;;;;;;;9.87;5.53;;;;;;;;;;5144616;28;20461;-58
2021/06/18 12:19:37;;;;;;;11.23;4.00;;;;;;;;;;5144492;28;20465;-56
2021/06/18 12:22:07;;;;;;;15.20;4.93;;;;;;;;;;5151532;27;20227;-58
2021/06/18 12:24:44;;;;;;;6.87;3.90;;;;;;;;;;5155986;28;20449;-58
2021/06/18 12:27:13;;;;;;;14.60;4.47;;;;;;;;;;5145975;28;20518;-58
2021/06/18 12:29:41;;;;;;;8.93;4.60;;;;;;;;;;5137737;28;20444;-54
2021/06/18 12:32:11;;;;;;;10.00;4.10;;;;;;;;;;5141325;28;20451;-58
2021/06/18 12:34:46;;;;;;;9.40;4.73;;;;;;;;;;5120749;27;20560;-55
2021/06/18 12:37:21;;;;;;;12.33;5.60;;;;;;;;;;5138648;28;20454;-57
2021/06/18 12:40:07;;;;;;;9.57;3.83;;;;;;;;;;5140810;27;20437;-52
2021/06/18 12:42:41;;;;;;;10.00;5.57;;;;;;;;;;5138550;27;20474;-58
2021/06/18 12:45:14;;;;;;;8.07;4.30;;;;;;;;;;5140018;27;20470;-58
2021/06/18 12:47:53;;;;;;;10.10;4.67;;;;;;;;;;5146910;27;20465;-58
2021/06/18 12:50:39;;;;;;;15.60;4.20;;;;;;;;;;5137929;28;20454;-55
2021/06/18 12:53:23;;;;;;;10.27;3.97;;;;;;;;;;5138179;28;20515;-54
2021/06/18 12:55:59;;;;;;;12.80;5.83;;;;;;;;;;5146933;27;20509;-59
2021/06/18 12:58:31;;;;;;;8.30;4.00;;;;;;;;;;5141748;27;20460;-56
2021/06/18 13:03:50;;;;;;;14.53;5.70;;;;;;;;;;5135412;27;20430;-57
2021/06/18 13:06:20;;;;;;;13.97;4.40;;;;;;;;;;5138083;27;20426;-57
2021/06/18 13:08:50;;;;;;;10.13;4.70;;;;;;;;;;5137981;28;20446;-56
2021/06/18 13:11:23;;;;;;;19.13;9.80;;;;;;;;;;5137564;28;20775;-55
2021/06/18 13:14:08;;;;;;;13.50;4.13;;;;;;;;;;5148597;27;20510;-57
2021/06/18 13:17:15;;;;;;;6.63;3.97;;;;;;;;;;5148590;27;20441;-52
2021/06/18 13:19:45;;;;;;;6.93;3.23;;;;;;;;;;5145875;27;20494;-58
2021/06/18 13:22:17;;;;;;;13.80;3.80;;;;;;;;;;5135966;28;20489;-58
2021/06/18 13:24:53;;;;;;;12.10;5.37;;;;;;;;;;5150573;27;20482;-58
2021/06/18 13:27:31;;;;;;;8.80;4.30;;;;;;;;;;5141908;27;20450;-56
2021/06/18 13:30:02;;;;;;;8.27;4.43;;;;;;;;;;5136187;28;20446;-56
2021/06/18 13:32:30;;;;;;;11.67;3.90;;;;;;;;;;5137068;28;20430;-57
2021/06/18 13:35:02;;;;;;;10.37;4.43;;;;;;;;;;5136363;28;20430;-48
2021/06/18 13:37:32;;;;;;;11.10;3.93;;;;;;;;;;5154656;27;20451;-56
2021/06/18 13:40:27;;;;;;;7.67;4.80;;;;;;;;;;5146627;27;20448;-57
2021/06/18 13:42:54;;;;;;;17.30;8.97;;;;;;;;;;5152271;27;20482;-59
2021/06/18 13:45:24;;;;;;;12.80;5.40;;;;;;;;;;5136846;28;20450;-54
2021/06/18 13:47:58;;;;;;;10.83;4.87;;;;;;;;;;5153160;27;20495;-52
2021/06/18 13:50:28;;;;;;;16.80;8.87;;;;;;;;;;5155342;27;20462;-56
2021/06/18 13:53:06;;;;;;;19.23;11.17;;;;;;;;;;5138768;27;20461;-55
2021/06/18 13:55:43;;;;;;;11.87;5.10;;;;;;;;;;5146633;27;20457;-53
2021/06/18 13:58:16;;;;;;;12.53;4.87;;;;;;;;;;5148107;27;20488;-56
2021/06/18 14:00:43;;;;;;;13.60;4.57;;;;;;;;;;5153244;27;20466;-54
2021/06/18 14:03:11;;;;;;;13.80;5.70;;;;;;;;;;5142787;27;20516;-53
2021/06/18 14:05:49;;;;;;;24.77;11.43;;;;;;;;;;5143319;27;20449;-56
2021/06/18 14:08:18;;;;;;;14.23;6.33;;;;;;;;;;5142839;27;20458;-56
2021/06/18 14:10:48;;;;;;;16.63;7.77;;;;;;;;;;5148344;27;20453;-55
2021/06/18 14:13:18;;;;;;;14.23;4.77;;;;;;;;;;5140160;27;20503;-53
2021/06/18 14:15:50;;;;;;;10.60;5.10;;;;;;;;;;5149593;27;20454;-52
2021/06/18 14:18:17;;;;;;;8.00;4.40;;;;;;;;;;5141802;27;20486;-56
2021/06/18 14:20:46;;;;;;;9.23;4.10;;;;;;;;;;5149930;27;20491;-59
2021/06/18 14:23:17;;;;;;;10.63;4.07;;;;;;;;;;5150424;27;20720;-60
2021/06/18 14:25:47;;;;;;;15.60;4.53;;;;;;;;;;5147137;27;20472;-57
2021/06/18 14:28:14;;;;;;;12.63;4.20;;;;;;;;;;5135354;27;20465;-50
2021/06/18 14:30:42;;;;;;;14.13;4.00;;;;;;;;;;5141359;27;20521;-56
2021/06/18 14:33:12;;;;;;;15.50;5.23;;;;;;;;;;5147750;27;20453;-53
2021/06/18 14:35:51;;;;;;;12.33;5.43;;;;;;;;;;5135378;27;20537;-52
2021/06/18 14:38:44;;;;;;;10.40;4.93;;;;;;;;;;5132929;27;20455;-57
2021/06/18 14:41:25;;;;;;;12.40;4.60;;;;;;;;;;5134424;28;20504;-60
2021/06/18 14:43:53;;;;;;;9.83;4.43;;;;;;;;;;5146788;27;20571;-53
2021/06/18 14:46:20;;;;;;;16.50;7.40;;;;;;;;;;5140444;27;20560;-57
2021/06/18 14:48:50;;;;;;;8.17;4.47;;;;;;;;;;5138380;27;20478;-59
2021/06/18 14:51:18;;;;;;;11.03;4.73;;;;;;;;;;5137811;27;20466;-50
2021/06/18 14:54:00;;;;;;;11.40;4.50;;;;;;;;;;5148410;27;20449;-54
2021/06/18 14:56:42;;;;;;;12.20;4.87;;;;;;;;;;5141947;27;20450;-55
2021/06/18 14:59:10;;;;;;;13.43;7.07;;;;;;;;;;5149538;27;20478;-55
2021/06/18 15:01:44;;;;;;;14.60;5.63;;;;;;;;;;5142351;27;20442;-53
2021/06/18 15:04:19;;;;;;;10.47;3.97;;;;;;;;;;5140171;27;20487;-57
2021/06/18 15:06:47;;;;;;;21.13;4.63;;;;;;;;;;5139304;27;20477;-55
2021/06/18 15:09:16;;;;;;;14.40;5.00;;;;;;;;;;5143237;27;20477;-51
2021/06/18 15:11:52;;;;;;;11.87;3.90;;;;;;;;;;5151529;27;20452;-54
2021/06/18 15:14:24;;;;;;;14.50;4.40;;;;;;;;;;5136603;27;20446;-55
2021/06/18 15:16:53;;;;;;;9.77;5.60;;;;;;;;;;5139396;27;20458;-56
2021/06/18 15:19:21;;;;;;;12.30;4.87;;;;;;;;;;5142917;27;20463;-55
2021/06/18 15:21:51;;;;;;;8.17;3.73;;;;;;;;;;5138719;28;20502;-56
2021/06/18 15:24:34;;;;;;;12.43;5.13;;;;;;;;;;5132414;28;20501;-53
2021/06/18 15:27:05;;;;;;;14.83;5.50;;;;;;;;;;5095500;28;20518;-55
2021/06/18 15:29:47;;;;;;;11.73;4.93;;;;;;;;;;5112532;28;20463;-55
2021/06/18 15:35:15;;;;;;;11.13;4.50;;;;;;;;;;5095324;28;20972;-55
2021/06/18 15:37:42;;;;;;;11.83;4.60;;;;;;;;;;5092480;28;20515;-53
2021/06/18 15:40:11;;;;;;;11.07;4.20;;;;;;;;;;5096704;28;20455;-54
2021/06/18 15:42:41;;;;;;;11.57;5.00;;;;;;;;;;5101983;28;20471;-55
2021/06/18 15:45:09;;;;;;;12.43;5.73;;;;;;;;;;5095412;28;20448;-54
2021/06/18 15:47:39;;;;;;;14.03;4.47;;;;;;;;;;5104315;28;20466;-55
2021/06/18 15:50:38;;;;;;;22.80;9.90;;;;;;;;;;5109297;28;20451;-53
2021/06/18 15:53:16;;;;;;;12.70;5.03;;;;;;;;;;5099251;28;20671;-54
2021/06/18 15:55:46;;;;;;;12.17;5.60;;;;;;;;;;5097914;28;20456;-54
2021/06/18 15:58:29;;;;;;;18.17;4.13;;;;;;;;;;5098832;28;20524;-56
2021/06/18 16:00:57;;;;;;;16.33;4.70;;;;;;;;;;5095905;28;20501;-50